PWSweather.com
Personal Weather Stations
Station Observations
133525
French Quarters West Seneca , West Seneca, NY 14224

French Quarters West Seneca West Seneca, NY 14224

Lat: 42.850058, Lon: -78.799754

Elevation: 603

Station Type: Davis Vantage Vue pro2

http://westsenecaweather.com/

Latest ConditionsUpdated 7:00:04 PM EST Tuesday, Jan 23, 2018
Currently Today's Max Today's Min Today's Average
Temperature 35.3°F1.8°C 53.5°F11.9°C 35.3°F1.8°C 44.3°F6.8°C
Dew Point 31.5°F-0.3°C 46.6°F8.1°C 31.5°F-0.3°C 41.0°F5.0°C
Winds 11.5 mph NNE18.5 kmh NNE 12.7 mph NNE20.4 kmh NNE - 6.0 mph 9.7 kmh
Wind Gusts 20.7 mph33.3 kmh 25.3 mph40.7 kmh - -
Humidity 86% 96% 74% 88%
Pressure 29.65 in1004.1 mb 29.65 in1004.1 mb 29.48 in998.3 mb -
Precipitation - 0.22 in5.6 mm - -
Hour Temp Dew Point Humidity Winds Wind Gusts Pressure Precip Precip Rate Daily Precip Total
07:00 PM 35.3°F1.8°C 31.5°F-0.3°C 86% 11.5 mph NNE18.5 kmh NNE 20.7 mph33.3 kmh 29.65 in1004.1 mb - 0.00 in0.0 mm 0.22 in5.6 mm
06:50 PM 35.5°F1.9°C 31.7°F-0.2°C 86% 11.5 mph N18.5 kmh N 19.6 mph31.5 kmh 29.64 in1003.7 mb - 0.00 in0.0 mm 0.22 in5.6 mm
06:40 PM 35.7°F2.1°C 31.9°F-0.1°C 86% 8.1 mph NNE13.0 kmh NNE 24.2 mph38.9 kmh 29.63 in1003.4 mb - 0.00 in0.0 mm 0.22 in5.6 mm
06:30 PM 35.8°F2.1°C 32.6°F0.3°C 88% 11.5 mph NNE18.5 kmh NNE 17.3 mph27.8 kmh 29.63 in1003.4 mb - 0.00 in0.0 mm 0.22 in5.6 mm
06:20 PM 35.9°F2.2°C 33.0°F0.6°C 89% 10.4 mph N16.7 kmh N 25.3 mph40.7 kmh 29.62 in1003.0 mb - 0.00 in0.0 mm 0.22 in5.6 mm
06:10 PM 36.0°F2.2°C 32.8°F0.4°C 88% 11.5 mph NNE18.5 kmh NNE 20.7 mph33.3 kmh 29.62 in1003.0 mb - 0.00 in0.0 mm 0.22 in5.6 mm
06:00 PM 36.0°F2.2°C 32.8°F0.4°C 88% 11.5 mph NNE18.5 kmh NNE 19.6 mph31.5 kmh 29.62 in1003.0 mb - 0.00 in0.0 mm 0.22 in5.6 mm
05:50 PM 36.0°F2.2°C 33.1°F0.6°C 89% 11.5 mph N18.5 kmh N 19.6 mph31.5 kmh 29.61 in1002.7 mb - 0.00 in0.0 mm 0.22 in5.6 mm
05:40 PM 35.7°F2.1°C 33.3°F0.7°C 91% 6.9 mph NNE11.1 kmh NNE 20.7 mph33.3 kmh 29.61 in1002.7 mb - 0.00 in0.0 mm 0.22 in5.6 mm
05:30 PM 35.5°F1.9°C 33.2°F0.7°C 91% 8.1 mph N13.0 kmh N 11.5 mph18.5 kmh 29.61 in1002.7 mb - 0.00 in0.0 mm 0.22 in5.6 mm
05:20 PM 35.6°F2.0°C 33.5°F0.8°C 92% 10.4 mph NNE16.7 kmh NNE 16.1 mph25.9 kmh 29.61 in1002.7 mb - 0.00 in0.0 mm 0.22 in5.6 mm
05:10 PM 35.5°F1.9°C 33.4°F0.8°C 92% 12.7 mph NNE20.4 kmh NNE 23.0 mph37.0 kmh 29.60 in1002.4 mb - 0.00 in0.0 mm 0.22 in5.6 mm
05:00 PM 35.6°F2.0°C 33.2°F0.7°C 91% 9.2 mph N14.8 kmh N 19.6 mph31.5 kmh 29.60 in1002.4 mb - 0.00 in0.0 mm 0.22 in5.6 mm
04:50 PM 36.0°F2.2°C 33.3°F0.7°C 90% 9.2 mph NNE14.8 kmh NNE 18.4 mph29.6 kmh 29.60 in1002.4 mb - 0.00 in0.0 mm 0.22 in5.6 mm
04:40 PM 36.0°F2.2°C 33.4°F0.8°C 90% 8.1 mph N13.0 kmh N 13.8 mph22.2 kmh 29.60 in1002.4 mb - 0.00 in0.0 mm 0.22 in5.6 mm
04:30 PM 36.0°F2.2°C 33.4°F0.8°C 90% 4.6 mph N7.4 kmh N 15.0 mph24.1 kmh 29.60 in1002.4 mb - 0.00 in0.0 mm 0.22 in5.6 mm
04:20 PM 36.3°F2.4°C 33.4°F0.8°C 89% 5.8 mph NNE9.3 kmh NNE 5.8 mph9.3 kmh 29.59 in1002.0 mb - 0.00 in0.0 mm 0.22 in5.6 mm
04:10 PM 36.5°F2.5°C 33.6°F0.9°C 89% 6.9 mph N11.1 kmh N 15.0 mph24.1 kmh 29.59 in1002.0 mb - 0.00 in0.0 mm 0.22 in5.6 mm
04:00 PM 36.6°F2.6°C 33.7°F0.9°C 89% 8.1 mph N13.0 kmh N 11.5 mph18.5 kmh 29.59 in1002.0 mb - 0.00 in0.0 mm 0.22 in5.6 mm
08:50 AM 46.0°F7.8°C 43.5°F6.4°C 91% 4.6 mph NW7.4 kmh NW 5.8 mph9.3 kmh 29.51 in999.3 mb - 0.00 in0.0 mm 0.21 in5.3 mm
08:40 AM 45.3°F7.4°C 43.1°F6.2°C 92% 3.5 mph NW5.6 kmh NW 5.8 mph9.3 kmh 29.52 in999.7 mb - 0.00 in0.0 mm 0.21 in5.3 mm
08:30 AM 45.0°F7.2°C 43.1°F6.2°C 93% 3.5 mph NW5.6 kmh NW 6.9 mph11.1 kmh 29.54 in1000.3 mb - 0.00 in0.0 mm 0.21 in5.3 mm
08:20 AM 45.0°F7.2°C 43.1°F6.2°C 93% 1.2 mph NNW1.9 kmh NNW 3.5 mph5.6 kmh 29.54 in1000.3 mb - 0.00 in0.0 mm 0.21 in5.3 mm
08:10 AM 45.0°F7.2°C 43.1°F6.2°C 93% 2.3 mph NNW3.7 kmh NNW 3.5 mph5.6 kmh 29.52 in999.7 mb - 0.00 in0.0 mm 0.21 in5.3 mm
08:00 AM 45.1°F7.3°C 43.2°F6.2°C 93% Calm Calm 1.2 mph1.9 kmh 29.52 in999.7 mb - 0.00 in0.0 mm 0.21 in5.3 mm
07:50 AM 45.2°F7.3°C 43.2°F6.2°C 93% 2.3 mph NW3.7 kmh NW 3.5 mph5.6 kmh 29.52 in999.7 mb - 0.00 in0.0 mm 0.21 in5.3 mm
07:40 AM 44.8°F7.1°C 43.4°F6.3°C 95% 2.3 mph NW3.7 kmh NW 3.5 mph5.6 kmh 29.53 in1000.0 mb - 0.00 in0.0 mm 0.21 in5.3 mm
07:30 AM 44.5°F6.9°C 43.2°F6.2°C 95% 2.3 mph NW3.7 kmh NW 3.5 mph5.6 kmh 29.54 in1000.3 mb - 0.00 in0.0 mm 0.21 in5.3 mm
07:20 AM 44.1°F6.7°C 43.0°F6.1°C 96% 2.3 mph NW3.7 kmh NW 4.6 mph7.4 kmh 29.53 in1000.0 mb - 0.00 in0.0 mm 0.21 in5.3 mm
07:10 AM 43.8°F6.6°C 42.7°F5.9°C 96% Calm Calm -- 29.52 in999.7 mb - 0.00 in0.0 mm 0.21 in5.3 mm
07:00 AM 43.5°F6.4°C 42.4°F5.8°C 96% 1.2 mph SW1.9 kmh SW 2.3 mph3.7 kmh 29.53 in1000.0 mb - 0.01 in0.3 mm 0.21 in5.3 mm
06:50 AM 43.5°F6.4°C 42.4°F5.8°C 96% 2.3 mph SW3.7 kmh SW 3.5 mph5.6 kmh 29.52 in999.7 mb - 0.00 in0.0 mm 0.20 in5.1 mm
06:40 AM 43.5°F6.4°C 42.4°F5.8°C 96% 1.2 mph WNW1.9 kmh WNW 2.3 mph3.7 kmh 29.54 in1000.3 mb - 0.00 in0.0 mm 0.20 in5.1 mm
06:30 AM 43.3°F6.3°C 42.2°F5.7°C 96% 2.3 mph WNW3.7 kmh WNW 3.5 mph5.6 kmh 29.55 in1000.7 mb - 0.00 in0.0 mm 0.20 in5.1 mm
06:20 AM 43.4°F6.3°C 42.1°F5.6°C 95% 2.3 mph WNW3.7 kmh WNW 3.5 mph5.6 kmh 29.55 in1000.7 mb - 0.00 in0.0 mm 0.20 in5.1 mm
06:10 AM 43.8°F6.6°C 42.7°F5.9°C 96% Calm Calm 1.2 mph1.9 kmh 29.53 in1000.0 mb - 0.00 in0.0 mm 0.20 in5.1 mm
06:00 AM 43.9°F6.6°C 42.8°F6.0°C 96% 2.3 mph WNW3.7 kmh WNW 3.5 mph5.6 kmh 29.53 in1000.0 mb - 0.00 in0.0 mm 0.20 in5.1 mm
05:50 AM 43.9°F6.6°C 42.8°F6.0°C 96% 1.2 mph WSW1.9 kmh WSW 3.5 mph5.6 kmh 29.53 in1000.0 mb - 0.00 in0.0 mm 0.20 in5.1 mm
05:40 AM 43.9°F6.6°C 42.8°F6.0°C 96% 3.5 mph WNW5.6 kmh WNW 4.6 mph7.4 kmh 29.56 in1001.0 mb - 0.01 in0.3 mm 0.20 in5.1 mm
05:30 AM 43.9°F6.6°C 42.6°F5.9°C 95% 3.5 mph WNW5.6 kmh WNW 4.6 mph7.4 kmh 29.57 in1001.4 mb - 0.00 in0.0 mm 0.19 in4.8 mm
05:20 AM 43.9°F6.6°C 42.8°F6.0°C 96% 3.5 mph NW5.6 kmh NW 4.6 mph7.4 kmh 29.58 in1001.7 mb - 0.01 in0.3 mm 0.19 in4.8 mm
05:10 AM 43.5°F6.4°C 42.2°F5.7°C 95% 3.5 mph NNW5.6 kmh NNW 9.2 mph14.8 kmh 29.57 in1001.4 mb - 0.02 in0.5 mm 0.18 in4.6 mm
05:00 AM 43.1°F6.2°C 41.8°F5.4°C 95% 3.5 mph NNW5.6 kmh NNW 8.1 mph13.0 kmh 29.57 in1001.4 mb - 0.02 in0.5 mm 0.16 in4.1 mm
04:50 AM 42.7°F5.9°C 41.4°F5.2°C 95% 4.6 mph N7.4 kmh N 8.1 mph13.0 kmh 29.58 in1001.7 mb - 0.02 in0.5 mm 0.14 in3.6 mm
04:40 AM 42.4°F5.8°C 40.8°F4.9°C 94% 4.6 mph NNW7.4 kmh NNW 3.5 mph5.6 kmh 29.57 in1001.4 mb - 0.03 in0.8 mm 0.13 in3.3 mm
04:30 AM 42.4°F5.8°C 40.5°F4.7°C 93% 5.8 mph N9.3 kmh N 5.8 mph9.3 kmh 29.58 in1001.7 mb - 0.02 in0.5 mm 0.10 in2.5 mm
04:20 AM 42.9°F6.1°C 40.7°F4.8°C 92% 4.6 mph N7.4 kmh N 4.6 mph7.4 kmh 29.58 in1001.7 mb - 0.02 in0.5 mm 0.08 in2.0 mm
04:10 AM 43.6°F6.4°C 41.2°F5.1°C 91% 6.9 mph N11.1 kmh N 10.4 mph16.7 kmh 29.58 in1001.7 mb - 0.03 in0.8 mm 0.06 in1.5 mm
04:00 AM 44.5°F6.9°C 41.8°F5.4°C 90% 6.9 mph N11.1 kmh N 11.5 mph18.5 kmh 29.58 in1001.7 mb - 0.01 in0.3 mm 0.03 in0.8 mm
03:50 AM 45.7°F7.6°C 42.3°F5.7°C 88% 5.8 mph N9.3 kmh N 6.9 mph11.1 kmh 29.57 in1001.4 mb - 0.00 in0.0 mm 0.02 in0.5 mm
03:40 AM 50.4°F10.2°C 44.4°F6.9°C 80% 10.4 mph N16.7 kmh N 18.4 mph29.6 kmh 29.57 in1001.4 mb - 0.02 in0.5 mm 0.02 in0.5 mm
03:30 AM 53.2°F11.8°C 45.8°F7.7°C 76% 10.4 mph NNW16.7 kmh NNW 11.5 mph18.5 kmh 29.52 in999.7 mb - 0.00 in0.0 mm 0.00 in0.0 mm
03:20 AM 52.8°F11.6°C 45.8°F7.7°C 77% 10.4 mph WNW16.7 kmh WNW 13.8 mph22.2 kmh 29.48 in998.3 mb - 0.00 in0.0 mm 0.00 in0.0 mm
03:10 AM 52.7°F11.5°C 45.7°F7.6°C 77% 6.9 mph W11.1 kmh W 13.8 mph22.2 kmh 29.49 in998.6 mb - 0.00 in0.0 mm 0.00 in0.0 mm
03:00 AM 53.2°F11.8°C 45.5°F7.5°C 75% 11.5 mph W18.5 kmh W 20.7 mph33.3 kmh 29.50 in999.0 mb - 0.00 in0.0 mm 0.00 in0.0 mm
02:50 AM 52.8°F11.6°C 45.1°F7.3°C 75% 9.2 mph WNW14.8 kmh WNW 12.7 mph20.4 kmh 29.50 in999.0 mb - 0.00 in0.0 mm 0.00 in0.0 mm
02:40 AM 53.5°F11.9°C 45.4°F7.4°C 74% 6.9 mph NW11.1 kmh NW 12.7 mph20.4 kmh 29.50 in999.0 mb - 0.00 in0.0 mm 0.00 in0.0 mm
02:30 AM 52.7°F11.5°C 45.4°F7.4°C 76% 8.1 mph WNW13.0 kmh WNW 11.5 mph18.5 kmh 29.51 in999.3 mb - 0.00 in0.0 mm 0.00 in0.0 mm
02:20 AM 52.1°F11.2°C 44.8°F7.1°C 76% 6.9 mph WNW11.1 kmh WNW 9.2 mph14.8 kmh 29.51 in999.3 mb - 0.00 in0.0 mm 0.00 in0.0 mm
02:10 AM 52.0°F11.1°C 44.7°F7.1°C 76% 8.1 mph WNW13.0 kmh WNW 15.0 mph24.1 kmh 29.52 in999.7 mb - 0.00 in0.0 mm 0.00 in0.0 mm
02:00 AM 52.3°F11.3°C 45.0°F7.2°C 76% 9.2 mph W14.8 kmh W 17.3 mph27.8 kmh 29.53 in1000.0 mb - 0.00 in0.0 mm 0.00 in0.0 mm
01:50 AM 52.5°F11.4°C 45.2°F7.3°C 76% 9.2 mph NW14.8 kmh NW 15.0 mph24.1 kmh 29.54 in1000.3 mb - 0.00 in0.0 mm 0.00 in0.0 mm
01:40 AM 52.7°F11.5°C 45.3°F7.4°C 76% 6.9 mph W11.1 kmh W 9.2 mph14.8 kmh 29.55 in1000.7 mb - 0.00 in0.0 mm 0.00 in0.0 mm
01:30 AM 52.7°F11.5°C 45.7°F7.6°C 77% 9.2 mph NW14.8 kmh NW 15.0 mph24.1 kmh 29.55 in1000.7 mb - 0.00 in0.0 mm 0.00 in0.0 mm
01:20 AM 52.9°F11.6°C 46.2°F7.9°C 78% 8.1 mph WNW13.0 kmh WNW 10.4 mph16.7 kmh 29.56 in1001.0 mb - 0.00 in0.0 mm 0.00 in0.0 mm
01:10 AM 52.6°F11.4°C 46.6°F8.1°C 80% 11.5 mph NW18.5 kmh NW 13.8 mph22.2 kmh 29.57 in1001.4 mb - 0.00 in0.0 mm 0.00 in0.0 mm
01:00 AM 51.5°F10.8°C 46.2°F7.9°C 82% 4.6 mph WNW7.4 kmh WNW 8.1 mph13.0 kmh 29.57 in1001.4 mb - 0.00 in0.0 mm 0.00 in0.0 mm
12:50 AM 50.8°F10.4°C 46.1°F7.8°C 84% 4.6 mph WNW7.4 kmh WNW 5.8 mph9.3 kmh 29.57 in1001.4 mb - 0.00 in0.0 mm 0.00 in0.0 mm
12:40 AM 49.3°F9.6°C 46.2°F7.9°C 89% 5.8 mph WNW9.3 kmh WNW 5.8 mph9.3 kmh 29.58 in1001.7 mb - 0.00 in0.0 mm 0.00 in0.0 mm
12:30 AM 48.3°F9.1°C 45.5°F7.5°C 90% 2.3 mph NW3.7 kmh NW 3.5 mph5.6 kmh 29.59 in1002.0 mb - 0.00 in0.0 mm 0.00 in0.0 mm
12:20 AM 49.0°F9.4°C 45.9°F7.7°C 89% 2.3 mph WSW3.7 kmh WSW 3.5 mph5.6 kmh 29.60 in1002.4 mb - 0.00 in0.0 mm 0.00 in0.0 mm
12:10 AM 49.3°F9.6°C 46.2°F7.9°C 89% 1.2 mph ENE1.9 kmh ENE 2.3 mph3.7 kmh 29.62 in1003.0 mb - 0.00 in0.0 mm 0.00 in0.0 mm
12:00 AM 49.7°F9.8°C 46.3°F7.9°C 88% Calm Calm 2.3 mph3.7 kmh 29.62 in1003.0 mb - 0.00 in0.0 mm 0.00 in0.0 mm